AUTO METAR SJOY 171400Z 05012KT BKN003 13/13 Q1017